sensor_id;sensor_type;location;lat;lon;timestamp;P1;durP1;ratioP1;P2;durP2;ratioP2
73699;SDS011;62005;50.082;8.988;2023-08-06T00:01:23;2.43;;;0.90;;
73699;SDS011;62005;50.082;8.988;2023-08-06T00:03:50;3.15;;;0.85;;
73699;SDS011;62005;50.082;8.988;2023-08-06T00:06:15;2.63;;;0.90;;
73699;SDS011;62005;50.082;8.988;2023-08-06T00:08:41;2.17;;;0.93;;
73699;SDS011;62005;50.082;8.988;2023-08-06T00:11:06;2.90;;;0.60;;
73699;SDS011;62005;50.082;8.988;2023-08-06T00:13:31;3.85;;;0.95;;
73699;SDS011;62005;50.082;8.988;2023-08-06T00:16:07;1.83;;;0.80;;
73699;SDS011;62005;50.082;8.988;2023-08-06T00:18:39;2.30;;;0.90;;
73699;SDS011;62005;50.082;8.988;2023-08-06T00:21:04;2.40;;;1.27;;
73699;SDS011;62005;50.082;8.988;2023-08-06T00:23:30;3.15;;;1.00;;
73699;SDS011;62005;50.082;8.988;2023-08-06T00:25:55;1.55;;;0.70;;
73699;SDS011;62005;50.082;8.988;2023-08-06T00:28:21;2.13;;;0.83;;
73699;SDS011;62005;50.082;8.988;2023-08-06T00:30:51;1.75;;;0.93;;
73699;SDS011;62005;50.082;8.988;2023-08-06T00:33:17;2.47;;;0.82;;
73699;SDS011;62005;50.082;8.988;2023-08-06T00:35:43;1.73;;;0.90;;
73699;SDS011;62005;50.082;8.988;2023-08-06T00:38:08;3.50;;;0.97;;
73699;SDS011;62005;50.082;8.988;2023-08-06T00:40:33;1.67;;;0.70;;
73699;SDS011;62005;50.082;8.988;2023-08-06T00:42:59;2.80;;;0.70;;
73699;SDS011;62005;50.082;8.988;2023-08-06T00:45:24;1.87;;;1.07;;
73699;SDS011;62005;50.082;8.988;2023-08-06T00:47:50;4.05;;;0.82;;
73699;SDS011;62005;50.082;8.988;2023-08-06T00:50:15;2.67;;;1.10;;
73699;SDS011;62005;50.082;8.988;2023-08-06T00:52:41;2.20;;;0.95;;
73699;SDS011;62005;50.082;8.988;2023-08-06T00:55:07;2.17;;;0.82;;
73699;SDS011;62005;50.082;8.988;2023-08-06T00:57:33;1.98;;;1.23;;
73699;SDS011;62005;50.082;8.988;2023-08-06T00:59:59;2.85;;;1.15;;
73699;SDS011;62005;50.082;8.988;2023-08-06T01:02:24;4.15;;;1.33;;
73699;SDS011;62005;50.082;8.988;2023-08-06T01:04:50;2.15;;;1.25;;
73699;SDS011;62005;50.082;8.988;2023-08-06T01:09:45;4.07;;;1.40;;
73699;SDS011;62005;50.082;8.988;2023-08-06T01:15:18;2.45;;;0.90;;
73699;SDS011;62005;50.082;8.988;2023-08-06T01:17:48;1.70;;;0.75;;
73699;SDS011;62005;50.082;8.988;2023-08-06T01:20:14;2.95;;;1.13;;
73699;SDS011;62005;50.082;8.988;2023-08-06T01:22:40;4.80;;;1.33;;
73699;SDS011;62005;50.082;8.988;2023-08-06T01:25:05;1.93;;;1.00;;
73699;SDS011;62005;50.082;8.988;2023-08-06T01:27:50;5.60;;;1.20;;
73699;SDS011;62005;50.082;8.988;2023-08-06T01:30:29;3.83;;;0.95;;
73699;SDS011;62005;50.082;8.988;2023-08-06T01:33:01;2.88;;;1.05;;
73699;SDS011;62005;50.082;8.988;2023-08-06T01:35:29;2.53;;;1.58;;
73699;SDS011;62005;50.082;8.988;2023-08-06T01:37:55;2.25;;;1.02;;
73699;SDS011;62005;50.082;8.988;2023-08-06T01:40:21;1.88;;;0.93;;
73699;SDS011;62005;50.082;8.988;2023-08-06T01:42:47;2.38;;;0.90;;
73699;SDS011;62005;50.082;8.988;2023-08-06T01:45:12;1.83;;;0.80;;
73699;SDS011;62005;50.082;8.988;2023-08-06T01:47:37;3.97;;;0.90;;
73699;SDS011;62005;50.082;8.988;2023-08-06T01:50:03;2.63;;;0.77;;
73699;SDS011;62005;50.082;8.988;2023-08-06T01:52:29;2.28;;;1.02;;
73699;SDS011;62005;50.082;8.988;2023-08-06T01:54:54;1.50;;;0.70;;
73699;SDS011;62005;50.082;8.988;2023-08-06T01:57:20;3.42;;;1.10;;
73699;SDS011;62005;50.082;8.988;2023-08-06T01:59:45;2.83;;;1.00;;
73699;SDS011;62005;50.082;8.988;2023-08-06T02:02:10;2.67;;;0.90;;
73699;SDS011;62005;50.082;8.988;2023-08-06T02:04:36;2.40;;;1.03;;
73699;SDS011;62005;50.082;8.988;2023-08-06T02:07:01;1.60;;;0.88;;
73699;SDS011;62005;50.082;8.988;2023-08-06T02:09:26;6.67;;;1.37;;
73699;SDS011;62005;50.082;8.988;2023-08-06T02:11:52;2.30;;;0.80;;
73699;SDS011;62005;50.082;8.988;2023-08-06T02:14:17;2.50;;;1.17;;
73699;SDS011;62005;50.082;8.988;2023-08-06T02:16:43;3.53;;;0.93;;
73699;SDS011;62005;50.082;8.988;2023-08-06T02:19:08;3.10;;;0.90;;
73699;SDS011;62005;50.082;8.988;2023-08-06T02:21:33;2.43;;;1.30;;
73699;SDS011;62005;50.082;8.988;2023-08-06T02:23:59;2.47;;;0.87;;
73699;SDS011;62005;50.082;8.988;2023-08-06T02:26:24;1.80;;;0.90;;
73699;SDS011;62005;50.082;8.988;2023-08-06T02:28:49;5.07;;;1.13;;
73699;SDS011;62005;50.082;8.988;2023-08-06T02:31:15;2.50;;;0.93;;
73699;SDS011;62005;50.082;8.988;2023-08-06T02:33:40;1.90;;;0.90;;
73699;SDS011;62005;50.082;8.988;2023-08-06T02:36:05;2.93;;;0.80;;
73699;SDS011;62005;50.082;8.988;2023-08-06T02:38:31;2.65;;;0.88;;
73699;SDS011;62005;50.082;8.988;2023-08-06T02:40:57;2.33;;;1.02;;
73699;SDS011;62005;50.082;8.988;2023-08-06T02:43:22;4.33;;;1.30;;
73699;SDS011;62005;50.082;8.988;2023-08-06T02:45:47;1.90;;;0.98;;
73699;SDS011;62005;50.082;8.988;2023-08-06T02:48:13;2.00;;;0.93;;
73699;SDS011;62005;50.082;8.988;2023-08-06T02:50:38;3.70;;;1.33;;
73699;SDS011;62005;50.082;8.988;2023-08-06T02:53:05;1.70;;;0.90;;
73699;SDS011;62005;50.082;8.988;2023-08-06T02:55:31;3.10;;;1.42;;
73699;SDS011;62005;50.082;8.988;2023-08-06T02:57:57;1.88;;;1.02;;
73699;SDS011;62005;50.082;8.988;2023-08-06T03:00:22;5.07;;;1.20;;
73699;SDS011;62005;50.082;8.988;2023-08-06T03:02:47;2.43;;;1.03;;
73699;SDS011;62005;50.082;8.988;2023-08-06T03:05:13;2.30;;;1.00;;
73699;SDS011;62005;50.082;8.988;2023-08-06T03:07:38;4.90;;;1.10;;
73699;SDS011;62005;50.082;8.988;2023-08-06T03:10:04;3.47;;;1.88;;
73699;SDS011;62005;50.082;8.988;2023-08-06T03:12:29;2.83;;;1.00;;
73699;SDS011;62005;50.082;8.988;2023-08-06T03:14:54;3.53;;;1.20;;
73699;SDS011;62005;50.082;8.988;2023-08-06T03:17:20;3.83;;;0.97;;
73699;SDS011;62005;50.082;8.988;2023-08-06T03:19:45;2.00;;;1.00;;
73699;SDS011;62005;50.082;8.988;2023-08-06T03:22:10;3.37;;;0.97;;
73699;SDS011;62005;50.082;8.988;2023-08-06T03:24:36;3.00;;;0.80;;
73699;SDS011;62005;50.082;8.988;2023-08-06T03:27:01;2.20;;;0.83;;
73699;SDS011;62005;50.082;8.988;2023-08-06T03:29:27;2.10;;;1.13;;
73699;SDS011;62005;50.082;8.988;2023-08-06T03:31:52;1.57;;;0.80;;
73699;SDS011;62005;50.082;8.988;2023-08-06T03:34:18;2.80;;;1.20;;
73699;SDS011;62005;50.082;8.988;2023-08-06T03:36:43;3.27;;;0.77;;
73699;SDS011;62005;50.082;8.988;2023-08-06T03:39:08;1.80;;;0.80;;
73699;SDS011;62005;50.082;8.988;2023-08-06T03:41:34;2.25;;;0.80;;
73699;SDS011;62005;50.082;8.988;2023-08-06T03:43:59;1.80;;;0.60;;
73699;SDS011;62005;50.082;8.988;2023-08-06T03:46:27;3.03;;;1.13;;
73699;SDS011;62005;50.082;8.988;2023-08-06T03:48:53;3.17;;;0.90;;
73699;SDS011;62005;50.082;8.988;2023-08-06T03:51:18;4.83;;;0.83;;
73699;SDS011;62005;50.082;8.988;2023-08-06T03:53:43;2.30;;;0.80;;
73699;SDS011;62005;50.082;8.988;2023-08-06T03:56:09;2.97;;;0.70;;
73699;SDS011;62005;50.082;8.988;2023-08-06T03:58:34;4.03;;;0.90;;
73699;SDS011;62005;50.082;8.988;2023-08-06T04:01:00;3.73;;;0.50;;
73699;SDS011;62005;50.082;8.988;2023-08-06T04:03:26;4.22;;;0.82;;
73699;SDS011;62005;50.082;8.988;2023-08-06T04:05:52;3.15;;;0.90;;
73699;SDS011;62005;50.082;8.988;2023-08-06T04:08:17;1.65;;;0.63;;
73699;SDS011;62005;50.082;8.988;2023-08-06T04:10:42;2.15;;;0.63;;
73699;SDS011;62005;50.082;8.988;2023-08-06T04:13:08;2.90;;;0.80;;
73699;SDS011;62005;50.082;8.988;2023-08-06T04:15:33;4.50;;;0.70;;
73699;SDS011;62005;50.082;8.988;2023-08-06T04:17:59;4.22;;;0.77;;
73699;SDS011;62005;50.082;8.988;2023-08-06T04:20:24;2.13;;;0.57;;
73699;SDS011;62005;50.082;8.988;2023-08-06T04:22:50;3.17;;;0.63;;
73699;SDS011;62005;50.082;8.988;2023-08-06T04:25:15;2.00;;;0.70;;
73699;SDS011;62005;50.082;8.988;2023-08-06T04:27:45;1.92;;;0.82;;
73699;SDS011;62005;50.082;8.988;2023-08-06T04:30:11;4.18;;;1.05;;
73699;SDS011;62005;50.082;8.988;2023-08-06T04:32:37;2.72;;;0.75;;
73699;SDS011;62005;50.082;8.988;2023-08-06T04:35:03;5.25;;;0.88;;
73699;SDS011;62005;50.082;8.988;2023-08-06T04:37:28;1.95;;;0.55;;
73699;SDS011;62005;50.082;8.988;2023-08-06T04:39:54;2.17;;;0.70;;
73699;SDS011;62005;50.082;8.988;2023-08-06T04:42:19;1.90;;;1.00;;
73699;SDS011;62005;50.082;8.988;2023-08-06T04:44:44;3.17;;;0.90;;
73699;SDS011;62005;50.082;8.988;2023-08-06T04:47:10;1.73;;;0.82;;
73699;SDS011;62005;50.082;8.988;2023-08-06T04:49:35;2.67;;;0.82;;
73699;SDS011;62005;50.082;8.988;2023-08-06T04:52:01;3.37;;;1.10;;
73699;SDS011;62005;50.082;8.988;2023-08-06T04:54:26;2.17;;;0.90;;
73699;SDS011;62005;50.082;8.988;2023-08-06T04:56:51;2.03;;;0.57;;
73699;SDS011;62005;50.082;8.988;2023-08-06T04:59:17;1.77;;;0.70;;
73699;SDS011;62005;50.082;8.988;2023-08-06T05:01:42;1.73;;;0.40;;
73699;SDS011;62005;50.082;8.988;2023-08-06T05:04:07;3.53;;;0.70;;
73699;SDS011;62005;50.082;8.988;2023-08-06T05:06:33;3.73;;;0.50;;
73699;SDS011;62005;50.082;8.988;2023-08-06T05:08:58;2.67;;;0.53;;
73699;SDS011;62005;50.082;8.988;2023-08-06T05:11:24;2.67;;;0.60;;
73699;SDS011;62005;50.082;8.988;2023-08-06T05:13:49;1.73;;;0.30;;
73699;SDS011;62005;50.082;8.988;2023-08-06T05:16:15;4.30;;;0.70;;
73699;SDS011;62005;50.082;8.988;2023-08-06T05:18:40;2.63;;;0.50;;
73699;SDS011;62005;50.082;8.988;2023-08-06T05:21:06;1.45;;;0.40;;
73699;SDS011;62005;50.082;8.988;2023-08-06T05:23:32;2.13;;;0.40;;
73699;SDS011;62005;50.082;8.988;2023-08-06T05:25:57;2.17;;;0.30;;
73699;SDS011;62005;50.082;8.988;2023-08-06T05:28:22;2.27;;;0.40;;
73699;SDS011;62005;50.082;8.988;2023-08-06T05:30:48;6.03;;;0.60;;
73699;SDS011;62005;50.082;8.988;2023-08-06T05:33:13;0.83;;;0.17;;
73699;SDS011;62005;50.082;8.988;2023-08-06T05:35:40;5.38;;;0.32;;
73699;SDS011;62005;50.082;8.988;2023-08-06T05:38:06;2.72;;;0.40;;
73699;SDS011;62005;50.082;8.988;2023-08-06T05:40:32;2.38;;;0.40;;
73699;SDS011;62005;50.082;8.988;2023-08-06T05:42:58;5.68;;;0.90;;
73699;SDS011;62005;50.082;8.988;2023-08-06T05:45:24;3.47;;;0.65;;
73699;SDS011;62005;50.082;8.988;2023-08-06T05:47:49;1.52;;;0.60;;
73699;SDS011;62005;50.082;8.988;2023-08-06T05:50:15;1.33;;;0.47;;
73699;SDS011;62005;50.082;8.988;2023-08-06T05:52:40;1.15;;;0.30;;
73699;SDS011;62005;50.082;8.988;2023-08-06T05:55:06;1.42;;;0.40;;
73699;SDS011;62005;50.082;8.988;2023-08-06T05:57:32;1.90;;;0.47;;
73699;SDS011;62005;50.082;8.988;2023-08-06T05:59:57;4.68;;;0.40;;
73699;SDS011;62005;50.082;8.988;2023-08-06T06:02:22;1.45;;;0.28;;
73699;SDS011;62005;50.082;8.988;2023-08-06T06:04:48;2.40;;;0.30;;
73699;SDS011;62005;50.082;8.988;2023-08-06T06:07:13;1.73;;;0.50;;
73699;SDS011;62005;50.082;8.988;2023-08-06T06:09:39;2.75;;;0.65;;
73699;SDS011;62005;50.082;8.988;2023-08-06T06:12:05;2.33;;;0.22;;
73699;SDS011;62005;50.082;8.988;2023-08-06T06:14:31;3.15;;;0.35;;
73699;SDS011;62005;50.082;8.988;2023-08-06T06:16:56;2.05;;;0.30;;
73699;SDS011;62005;50.082;8.988;2023-08-06T06:19:22;1.42;;;0.30;;
73699;SDS011;62005;50.082;8.988;2023-08-06T06:21:47;1.15;;;0.30;;
73699;SDS011;62005;50.082;8.988;2023-08-06T06:24:12;1.85;;;0.20;;
73699;SDS011;62005;50.082;8.988;2023-08-06T06:26:38;1.25;;;0.28;;
73699;SDS011;62005;50.082;8.988;2023-08-06T06:29:04;1.08;;;0.22;;
73699;SDS011;62005;50.082;8.988;2023-08-06T06:31:29;0.60;;;0.17;;
73699;SDS011;62005;50.082;8.988;2023-08-06T06:33:55;1.30;;;0.10;;
73699;SDS011;62005;50.082;8.988;2023-08-06T06:36:20;0.88;;;0.20;;
73699;SDS011;62005;50.082;8.988;2023-08-06T06:38:45;0.73;;;0.30;;
73699;SDS011;62005;50.082;8.988;2023-08-06T06:41:11;1.45;;;0.20;;
73699;SDS011;62005;50.082;8.988;2023-08-06T06:43:37;1.40;;;0.13;;
73699;SDS011;62005;50.082;8.988;2023-08-06T06:46:03;1.13;;;0.10;;
73699;SDS011;62005;50.082;8.988;2023-08-06T06:48:29;0.68;;;0.20;;
73699;SDS011;62005;50.082;8.988;2023-08-06T06:50:56;1.40;;;0.10;;
73699;SDS011;62005;50.082;8.988;2023-08-06T06:53:21;1.00;;;0.13;;
73699;SDS011;62005;50.082;8.988;2023-08-06T06:55:55;1.80;;;0.30;;
73699;SDS011;62005;50.082;8.988;2023-08-06T06:58:28;1.45;;;0.20;;
73699;SDS011;62005;50.082;8.988;2023-08-06T07:00:53;3.27;;;0.33;;
73699;SDS011;62005;50.082;8.988;2023-08-06T07:03:19;0.97;;;0.27;;
73699;SDS011;62005;50.082;8.988;2023-08-06T07:05:45;1.55;;;0.17;;
73699;SDS011;62005;50.082;8.988;2023-08-06T07:08:11;1.40;;;0.22;;
73699;SDS011;62005;50.082;8.988;2023-08-06T07:10:36;0.85;;;0.20;;
73699;SDS011;62005;50.082;8.988;2023-08-06T07:13:02;1.70;;;0.20;;
73699;SDS011;62005;50.082;8.988;2023-08-06T07:15:27;1.90;;;0.13;;
73699;SDS011;62005;50.082;8.988;2023-08-06T07:17:53;2.50;;;0.50;;
73699;SDS011;62005;50.082;8.988;2023-08-06T07:20:18;1.30;;;0.03;;
73699;SDS011;62005;50.082;8.988;2023-08-06T07:22:44;1.10;;;0.10;;
73699;SDS011;62005;50.082;8.988;2023-08-06T07:25:09;0.60;;;0.00;;
73699;SDS011;62005;50.082;8.988;2023-08-06T07:27:35;1.00;;;0.20;;
73699;SDS011;62005;50.082;8.988;2023-08-06T07:30:00;0.32;;;0.08;;
73699;SDS011;62005;50.082;8.988;2023-08-06T07:32:26;0.40;;;0.00;;
73699;SDS011;62005;50.082;8.988;2023-08-06T07:34:53;0.50;;;0.10;;
73699;SDS011;62005;50.082;8.988;2023-08-06T07:37:22;0.60;;;0.08;;
73699;SDS011;62005;50.082;8.988;2023-08-06T07:39:47;2.20;;;0.00;;
73699;SDS011;62005;50.082;8.988;2023-08-06T07:42:13;0.70;;;0.10;;
73699;SDS011;62005;50.082;8.988;2023-08-06T07:44:38;1.70;;;0.00;;
73699;SDS011;62005;50.082;8.988;2023-08-06T07:47:04;0.95;;;0.10;;
73699;SDS011;62005;50.082;8.988;2023-08-06T07:49:29;0.73;;;0.00;;
73699;SDS011;62005;50.082;8.988;2023-08-06T07:51:55;2.17;;;0.10;;
73699;SDS011;62005;50.082;8.988;2023-08-06T07:54:20;1.20;;;0.00;;
73699;SDS011;62005;50.082;8.988;2023-08-06T07:56:45;1.63;;;0.10;;
73699;SDS011;62005;50.082;8.988;2023-08-06T07:59:11;0.90;;;0.10;;
73699;SDS011;62005;50.082;8.988;2023-08-06T08:01:36;0.30;;;0.00;;
73699;SDS011;62005;50.082;8.988;2023-08-06T08:04:01;0.40;;;0.10;;
73699;SDS011;62005;50.082;8.988;2023-08-06T08:06:27;0.80;;;0.00;;
73699;SDS011;62005;50.082;8.988;2023-08-06T08:08:52;0.40;;;0.10;;
73699;SDS011;62005;50.082;8.988;2023-08-06T08:11:17;0.30;;;0.10;;
73699;SDS011;62005;50.082;8.988;2023-08-06T08:13:43;0.50;;;0.03;;
73699;SDS011;62005;50.082;8.988;2023-08-06T08:16:09;1.05;;;0.10;;
73699;SDS011;62005;50.082;8.988;2023-08-06T08:18:34;0.50;;;0.10;;
73699;SDS011;62005;50.082;8.988;2023-08-06T08:21:00;0.97;;;0.10;;
73699;SDS011;62005;50.082;8.988;2023-08-06T08:23:25;0.77;;;0.07;;
73699;SDS011;62005;50.082;8.988;2023-08-06T08:25:50;0.40;;;0.00;;
73699;SDS011;62005;50.082;8.988;2023-08-06T08:28:16;0.10;;;0.00;;
73699;SDS011;62005;50.082;8.988;2023-08-06T08:30:41;0.30;;;0.00;;
73699;SDS011;62005;50.082;8.988;2023-08-06T08:33:07;0.60;;;0.00;;
73699;SDS011;62005;50.082;8.988;2023-08-06T08:35:33;0.73;;;0.10;;
73699;SDS011;62005;50.082;8.988;2023-08-06T08:37:58;0.70;;;0.03;;
73699;SDS011;62005;50.082;8.988;2023-08-06T08:40:24;2.00;;;0.00;;
73699;SDS011;62005;50.082;8.988;2023-08-06T08:42:55;0.20;;;0.00;;
73699;SDS011;62005;50.082;8.988;2023-08-06T08:45:21;0.75;;;0.13;;
73699;SDS011;62005;50.082;8.988;2023-08-06T08:47:49;0.82;;;0.30;;
73699;SDS011;62005;50.082;8.988;2023-08-06T08:50:14;0.30;;;0.00;;
73699;SDS011;62005;50.082;8.988;2023-08-06T08:52:41;0.70;;;0.10;;
73699;SDS011;62005;50.082;8.988;2023-08-06T08:55:10;2.67;;;0.13;;
73699;SDS011;62005;50.082;8.988;2023-08-06T08:57:37;0.50;;;0.20;;
73699;SDS011;62005;50.082;8.988;2023-08-06T09:00:03;0.47;;;0.00;;
73699;SDS011;62005;50.082;8.988;2023-08-06T09:02:28;0.93;;;0.00;;
73699;SDS011;62005;50.082;8.988;2023-08-06T09:05:01;0.75;;;0.20;;
73699;SDS011;62005;50.082;8.988;2023-08-06T09:07:32;0.63;;;0.20;;
73699;SDS011;62005;50.082;8.988;2023-08-06T09:10:04;1.00;;;0.17;;
73699;SDS011;62005;50.082;8.988;2023-08-06T09:12:31;2.42;;;0.10;;
73699;SDS011;62005;50.082;8.988;2023-08-06T09:14:57;0.33;;;0.10;;
73699;SDS011;62005;50.082;8.988;2023-08-06T09:17:22;0.35;;;0.00;;
73699;SDS011;62005;50.082;8.988;2023-08-06T09:19:48;1.50;;;0.33;;
73699;SDS011;62005;50.082;8.988;2023-08-06T09:22:14;0.20;;;0.00;;
73699;SDS011;62005;50.082;8.988;2023-08-06T09:24:43;1.00;;;0.00;;
73699;SDS011;62005;50.082;8.988;2023-08-06T09:27:12;0.43;;;0.03;;
73699;SDS011;62005;50.082;8.988;2023-08-06T09:29:45;0.82;;;0.10;;
73699;SDS011;62005;50.082;8.988;2023-08-06T09:32:11;0.80;;;0.10;;
73699;SDS011;62005;50.082;8.988;2023-08-06T09:34:45;0.43;;;0.00;;
73699;SDS011;62005;50.082;8.988;2023-08-06T09:37:11;0.45;;;0.00;;
73699;SDS011;62005;50.082;8.988;2023-08-06T09:39:37;0.55;;;0.00;;
73699;SDS011;62005;50.082;8.988;2023-08-06T09:42:04;0.10;;;0.00;;
73699;SDS011;62005;50.082;8.988;2023-08-06T09:44:31;0.20;;;0.00;;
73699;SDS011;62005;50.082;8.988;2023-08-06T09:46:58;2.92;;;0.28;;
73699;SDS011;62005;50.082;8.988;2023-08-06T09:49:39;0.82;;;0.03;;
73699;SDS011;62005;50.082;8.988;2023-08-06T09:52:09;1.55;;;0.00;;
73699;SDS011;62005;50.082;8.988;2023-08-06T09:54:36;0.22;;;0.00;;
73699;SDS011;62005;50.082;8.988;2023-08-06T09:57:02;0.40;;;0.00;;
73699;SDS011;62005;50.082;8.988;2023-08-06T09:59:28;0.17;;;0.10;;
73699;SDS011;62005;50.082;8.988;2023-08-06T10:01:53;1.67;;;0.00;;
73699;SDS011;62005;50.082;8.988;2023-08-06T10:04:20;0.17;;;0.00;;
73699;SDS011;62005;50.082;8.988;2023-08-06T10:06:46;1.05;;;0.10;;
73699;SDS011;62005;50.082;8.988;2023-08-06T10:09:15;0.52;;;0.00;;
73699;SDS011;62005;50.082;8.988;2023-08-06T10:11:40;0.80;;;0.05;;
73699;SDS011;62005;50.082;8.988;2023-08-06T10:16:38;0.20;;;0.00;;
73699;SDS011;62005;50.082;8.988;2023-08-06T10:19:06;0.40;;;0.00;;
73699;SDS011;62005;50.082;8.988;2023-08-06T10:21:34;0.20;;;0.00;;
73699;SDS011;62005;50.082;8.988;2023-08-06T10:24:00;0.10;;;0.00;;
73699;SDS011;62005;50.082;8.988;2023-08-06T10:28:52;0.90;;;0.00;;
73699;SDS011;62005;50.082;8.988;2023-08-06T10:31:18;0.73;;;0.00;;
73699;SDS011;62005;50.082;8.988;2023-08-06T10:33:44;0.80;;;0.00;;
73699;SDS011;62005;50.082;8.988;2023-08-06T10:36:10;0.17;;;0.00;;
73699;SDS011;62005;50.082;8.988;2023-08-06T10:38:57;0.10;;;0.00;;
73699;SDS011;62005;50.082;8.988;2023-08-06T10:41:34;1.88;;;0.00;;
73699;SDS011;62005;50.082;8.988;2023-08-06T10:44:31;0.32;;;0.00;;
73699;SDS011;62005;50.082;8.988;2023-08-06T10:46:57;0.65;;;0.00;;
73699;SDS011;62005;50.082;8.988;2023-08-06T10:49:52;2.45;;;0.20;;
73699;SDS011;62005;50.082;8.988;2023-08-06T10:52:17;0.30;;;0.00;;
73699;SDS011;62005;50.082;8.988;2023-08-06T10:54:43;0.30;;;0.00;;
73699;SDS011;62005;50.082;8.988;2023-08-06T10:57:08;2.10;;;0.00;;
73699;SDS011;62005;50.082;8.988;2023-08-06T10:59:35;0.52;;;0.00;;
73699;SDS011;62005;50.082;8.988;2023-08-06T11:02:00;1.40;;;0.00;;
73699;SDS011;62005;50.082;8.988;2023-08-06T11:04:30;0.82;;;0.03;;
73699;SDS011;62005;50.082;8.988;2023-08-06T11:07:09;0.15;;;0.00;;
73699;SDS011;62005;50.082;8.988;2023-08-06T11:09:35;0.75;;;0.00;;
73699;SDS011;62005;50.082;8.988;2023-08-06T11:12:04;0.25;;;0.00;;
73699;SDS011;62005;50.082;8.988;2023-08-06T11:14:35;0.10;;;0.00;;
73699;SDS011;62005;50.082;8.988;2023-08-06T11:17:00;0.20;;;0.00;;
73699;SDS011;62005;50.082;8.988;2023-08-06T11:19:26;0.30;;;0.00;;
73699;SDS011;62005;50.082;8.988;2023-08-06T11:21:51;0.25;;;0.03;;
73699;SDS011;62005;50.082;8.988;2023-08-06T11:24:17;1.55;;;0.10;;
73699;SDS011;62005;50.082;8.988;2023-08-06T11:26:42;0.45;;;0.00;;
73699;SDS011;62005;50.082;8.988;2023-08-06T11:29:09;0.28;;;0.00;;
73699;SDS011;62005;50.082;8.988;2023-08-06T11:31:35;0.22;;;0.00;;
73699;SDS011;62005;50.082;8.988;2023-08-06T11:34:01;0.98;;;0.10;;
73699;SDS011;62005;50.082;8.988;2023-08-06T11:38:56;1.17;;;0.00;;
73699;SDS011;62005;50.082;8.988;2023-08-06T11:41:22;1.42;;;0.00;;
73699;SDS011;62005;50.082;8.988;2023-08-06T11:44:10;0.40;;;0.00;;
73699;SDS011;62005;50.082;8.988;2023-08-06T11:50:37;0.10;;;0.00;;
73699;SDS011;62005;50.082;8.988;2023-08-06T11:53:06;0.20;;;0.10;;
73699;SDS011;62005;50.082;8.988;2023-08-06T11:55:31;0.25;;;0.00;;
73699;SDS011;62005;50.082;8.988;2023-08-06T11:58:02;0.20;;;0.00;;
73699;SDS011;62005;50.082;8.988;2023-08-06T12:00:46;0.40;;;0.00;;
73699;SDS011;62005;50.082;8.988;2023-08-06T12:03:15;0.20;;;0.00;;
73699;SDS011;62005;50.082;8.988;2023-08-06T12:05:44;0.20;;;0.00;;
73699;SDS011;62005;50.082;8.988;2023-08-06T12:08:21;0.40;;;0.00;;
73699;SDS011;62005;50.082;8.988;2023-08-06T12:11:29;0.52;;;0.00;;
73699;SDS011;62005;50.082;8.988;2023-08-06T12:13:54;0.10;;;0.00;;
73699;SDS011;62005;50.082;8.988;2023-08-06T12:16:21;0.90;;;0.00;;
73699;SDS011;62005;50.082;8.988;2023-08-06T12:18:48;0.05;;;0.00;;
73699;SDS011;62005;50.082;8.988;2023-08-06T12:21:14;0.38;;;0.00;;
73699;SDS011;62005;50.082;8.988;2023-08-06T12:23:39;0.10;;;0.00;;
73699;SDS011;62005;50.082;8.988;2023-08-06T12:26:05;0.20;;;0.00;;
73699;SDS011;62005;50.082;8.988;2023-08-06T12:28:30;0.40;;;0.00;;
73699;SDS011;62005;50.082;8.988;2023-08-06T12:30:55;0.70;;;0.00;;
73699;SDS011;62005;50.082;8.988;2023-08-06T12:33:21;0.30;;;0.00;;
73699;SDS011;62005;50.082;8.988;2023-08-06T12:35:46;0.10;;;0.00;;
73699;SDS011;62005;50.082;8.988;2023-08-06T12:38:11;0.77;;;0.00;;
73699;SDS011;62005;50.082;8.988;2023-08-06T12:40:38;0.30;;;0.00;;
73699;SDS011;62005;50.082;8.988;2023-08-06T12:43:04;0.20;;;0.00;;
73699;SDS011;62005;50.082;8.988;2023-08-06T12:45:29;0.60;;;0.10;;
73699;SDS011;62005;50.082;8.988;2023-08-06T12:47:54;2.45;;;0.22;;
73699;SDS011;62005;50.082;8.988;2023-08-06T12:50:20;2.05;;;0.00;;
73699;SDS011;62005;50.082;8.988;2023-08-06T12:52:45;0.20;;;0.00;;
73699;SDS011;62005;50.082;8.988;2023-08-06T12:55:11;3.83;;;0.00;;
73699;SDS011;62005;50.082;8.988;2023-08-06T12:57:36;0.10;;;0.00;;
73699;SDS011;62005;50.082;8.988;2023-08-06T13:00:01;0.70;;;0.00;;
73699;SDS011;62005;50.082;8.988;2023-08-06T13:02:27;0.05;;;0.00;;
73699;SDS011;62005;50.082;8.988;2023-08-06T13:04:54;0.10;;;0.00;;
73699;SDS011;62005;50.082;8.988;2023-08-06T13:07:20;0.57;;;0.00;;
73699;SDS011;62005;50.082;8.988;2023-08-06T13:09:45;0.10;;;0.00;;
73699;SDS011;62005;50.082;8.988;2023-08-06T13:12:14;0.22;;;0.00;;
73699;SDS011;62005;50.082;8.988;2023-08-06T13:14:45;0.20;;;0.00;;
73699;SDS011;62005;50.082;8.988;2023-08-06T13:17:31;0.63;;;0.00;;
73699;SDS011;62005;50.082;8.988;2023-08-06T13:22:47;0.03;;;0.00;;
73699;SDS011;62005;50.082;8.988;2023-08-06T13:25:15;2.05;;;0.00;;
73699;SDS011;62005;50.082;8.988;2023-08-06T13:27:50;0.55;;;0.00;;
73699;SDS011;62005;50.082;8.988;2023-08-06T13:30:15;0.38;;;0.00;;
73699;SDS011;62005;50.082;8.988;2023-08-06T13:32:43;0.30;;;0.00;;
73699;SDS011;62005;50.082;8.988;2023-08-06T13:35:09;0.10;;;0.00;;
73699;SDS011;62005;50.082;8.988;2023-08-06T13:37:35;1.27;;;0.00;;
73699;SDS011;62005;50.082;8.988;2023-08-06T13:40:00;0.50;;;0.00;;
73699;SDS011;62005;50.082;8.988;2023-08-06T13:42:25;0.30;;;0.00;;
73699;SDS011;62005;50.082;8.988;2023-08-06T13:44:51;0.20;;;0.00;;
73699;SDS011;62005;50.082;8.988;2023-08-06T13:47:16;0.60;;;0.00;;
73699;SDS011;62005;50.082;8.988;2023-08-06T13:49:41;0.10;;;0.00;;
73699;SDS011;62005;50.082;8.988;2023-08-06T13:52:07;0.68;;;0.00;;
73699;SDS011;62005;50.082;8.988;2023-08-06T13:54:32;0.07;;;0.00;;
73699;SDS011;62005;50.082;8.988;2023-08-06T13:56:58;0.10;;;0.00;;
73699;SDS011;62005;50.082;8.988;2023-08-06T13:59:23;0.37;;;0.00;;
73699;SDS011;62005;50.082;8.988;2023-08-06T14:01:49;0.25;;;0.00;;
73699;SDS011;62005;50.082;8.988;2023-08-06T14:04:15;0.13;;;0.03;;
73699;SDS011;62005;50.082;8.988;2023-08-06T14:06:40;2.47;;;0.10;;
73699;SDS011;62005;50.082;8.988;2023-08-06T14:09:06;0.40;;;0.00;;
73699;SDS011;62005;50.082;8.988;2023-08-06T14:11:31;0.52;;;0.00;;
73699;SDS011;62005;50.082;8.988;2023-08-06T14:13:57;1.80;;;0.10;;
73699;SDS011;62005;50.082;8.988;2023-08-06T14:16:22;0.40;;;0.10;;
73699;SDS011;62005;50.082;8.988;2023-08-06T14:18:47;0.40;;;0.03;;
73699;SDS011;62005;50.082;8.988;2023-08-06T14:21:13;1.23;;;0.00;;
73699;SDS011;62005;50.082;8.988;2023-08-06T14:23:39;2.92;;;0.03;;
73699;SDS011;62005;50.082;8.988;2023-08-06T14:26:06;0.73;;;0.10;;
73699;SDS011;62005;50.082;8.988;2023-08-06T14:28:31;0.75;;;0.03;;
73699;SDS011;62005;50.082;8.988;2023-08-06T14:30:57;1.10;;;0.10;;
73699;SDS011;62005;50.082;8.988;2023-08-06T14:33:22;0.20;;;0.03;;
73699;SDS011;62005;50.082;8.988;2023-08-06T14:35:48;1.80;;;0.20;;
73699;SDS011;62005;50.082;8.988;2023-08-06T14:38:13;0.60;;;0.10;;
73699;SDS011;62005;50.082;8.988;2023-08-06T14:40:39;0.70;;;0.10;;
73699;SDS011;62005;50.082;8.988;2023-08-06T14:43:05;0.80;;;0.25;;
73699;SDS011;62005;50.082;8.988;2023-08-06T14:45:31;0.90;;;0.22;;
73699;SDS011;62005;50.082;8.988;2023-08-06T14:47:56;6.80;;;1.63;;
73699;SDS011;62005;50.082;8.988;2023-08-06T14:50:22;4.53;;;1.50;;
73699;SDS011;62005;50.082;8.988;2023-08-06T14:52:47;4.97;;;0.90;;
73699;SDS011;62005;50.082;8.988;2023-08-06T14:55:17;4.53;;;1.80;;
73699;SDS011;62005;50.082;8.988;2023-08-06T14:57:47;2.67;;;1.02;;
73699;SDS011;62005;50.082;8.988;2023-08-06T15:00:13;2.97;;;1.27;;
73699;SDS011;62005;50.082;8.988;2023-08-06T15:02:38;2.58;;;0.52;;
73699;SDS011;62005;50.082;8.988;2023-08-06T15:05:04;1.75;;;0.40;;